sensor_id;sensor_type;location;lat;lon;timestamp;temperature;humidity
19567;DHT22;9930;49.240;8.548;2022-07-29T00:00:15;25.80;43.40
19567;DHT22;9930;49.240;8.548;2022-07-29T00:02:45;25.70;43.60
19567;DHT22;9930;49.240;8.548;2022-07-29T00:05:11;25.70;44.40
19567;DHT22;9930;49.240;8.548;2022-07-29T00:07:39;25.70;44.00
19567;DHT22;9930;49.240;8.548;2022-07-29T00:10:06;25.70;44.30
19567;DHT22;9930;49.240;8.548;2022-07-29T00:12:32;25.60;44.40
19567;DHT22;9930;49.240;8.548;2022-07-29T00:14:57;25.60;44.70
19567;DHT22;9930;49.240;8.548;2022-07-29T00:17:24;25.50;45.10
19567;DHT22;9930;49.240;8.548;2022-07-29T00:19:50;25.50;45.20
19567;DHT22;9930;49.240;8.548;2022-07-29T00:22:16;25.50;45.40
19567;DHT22;9930;49.240;8.548;2022-07-29T00:24:42;25.50;45.70
19567;DHT22;9930;49.240;8.548;2022-07-29T00:27:08;25.50;45.90
19567;DHT22;9930;49.240;8.548;2022-07-29T00:29:38;25.40;46.00
19567;DHT22;9930;49.240;8.548;2022-07-29T00:32:04;25.40;46.20
19567;DHT22;9930;49.240;8.548;2022-07-29T00:34:33;25.40;46.40
19567;DHT22;9930;49.240;8.548;2022-07-29T00:37:18;25.40;46.60
19567;DHT22;9930;49.240;8.548;2022-07-29T00:39:46;25.40;46.70
19567;DHT22;9930;49.240;8.548;2022-07-29T00:42:17;25.40;47.00
19567;DHT22;9930;49.240;8.548;2022-07-29T00:44:43;25.40;47.20
19567;DHT22;9930;49.240;8.548;2022-07-29T00:47:10;25.30;47.10
19567;DHT22;9930;49.240;8.548;2022-07-29T00:49:41;25.30;47.40
19567;DHT22;9930;49.240;8.548;2022-07-29T00:52:09;25.30;47.50
19567;DHT22;9930;49.240;8.548;2022-07-29T00:54:39;25.30;47.70
19567;DHT22;9930;49.240;8.548;2022-07-29T00:57:08;25.30;48.00
19567;DHT22;9930;49.240;8.548;2022-07-29T00:59:34;25.30;47.80
19567;DHT22;9930;49.240;8.548;2022-07-29T01:02:01;25.30;48.10
19567;DHT22;9930;49.240;8.548;2022-07-29T01:04:28;25.20;48.10
19567;DHT22;9930;49.240;8.548;2022-07-29T01:06:56;25.20;48.30
19567;DHT22;9930;49.240;8.548;2022-07-29T01:09:28;25.20;48.40
19567;DHT22;9930;49.240;8.548;2022-07-29T01:11:56;25.20;48.70
19567;DHT22;9930;49.240;8.548;2022-07-29T01:14:23;25.20;48.80
19567;DHT22;9930;49.240;8.548;2022-07-29T01:17:09;25.20;49.10
19567;DHT22;9930;49.240;8.548;2022-07-29T01:28:47;25.00;50.30
19567;DHT22;9930;49.240;8.548;2022-07-29T01:34:15;25.00;50.80
19567;DHT22;9930;49.240;8.548;2022-07-29T01:37:18;25.00;50.20
19567;DHT22;9930;49.240;8.548;2022-07-29T01:39:48;24.90;50.70
19567;DHT22;9930;49.240;8.548;2022-07-29T01:42:44;24.90;50.50
19567;DHT22;9930;49.240;8.548;2022-07-29T01:45:40;24.90;51.20
19567;DHT22;9930;49.240;8.548;2022-07-29T01:48:26;24.80;51.50
19567;DHT22;9930;49.240;8.548;2022-07-29T01:51:12;24.80;50.90
19567;DHT22;9930;49.240;8.548;2022-07-29T01:56:55;24.80;51.80
19567;DHT22;9930;49.240;8.548;2022-07-29T01:59:24;24.80;51.50
19567;DHT22;9930;49.240;8.548;2022-07-29T02:01:54;24.80;51.40
19567;DHT22;9930;49.240;8.548;2022-07-29T02:04:22;24.80;51.70
19567;DHT22;9930;49.240;8.548;2022-07-29T02:06:51;24.70;51.70
19567;DHT22;9930;49.240;8.548;2022-07-29T02:09:20;24.80;51.90
19567;DHT22;9930;49.240;8.548;2022-07-29T02:11:52;24.70;52.00
19567;DHT22;9930;49.240;8.548;2022-07-29T02:14:22;24.70;52.20
19567;DHT22;9930;49.240;8.548;2022-07-29T02:16:53;24.70;52.10
19567;DHT22;9930;49.240;8.548;2022-07-29T02:19:22;24.70;52.40
19567;DHT22;9930;49.240;8.548;2022-07-29T02:21:53;24.60;52.40
19567;DHT22;9930;49.240;8.548;2022-07-29T02:24:22;24.60;52.50
19567;DHT22;9930;49.240;8.548;2022-07-29T02:26:50;24.60;52.60
19567;DHT22;9930;49.240;8.548;2022-07-29T02:29:26;24.60;52.80
19567;DHT22;9930;49.240;8.548;2022-07-29T02:31:54;24.50;53.20
19567;DHT22;9930;49.240;8.548;2022-07-29T02:34:24;24.50;53.20
19567;DHT22;9930;49.240;8.548;2022-07-29T02:36:55;24.50;53.20
19567;DHT22;9930;49.240;8.548;2022-07-29T02:39:24;24.50;53.50
19567;DHT22;9930;49.240;8.548;2022-07-29T02:42:06;24.40;53.60
19567;DHT22;9930;49.240;8.548;2022-07-29T02:44:35;24.40;54.10
19567;DHT22;9930;49.240;8.548;2022-07-29T02:52:39;24.30;54.30
19567;DHT22;9930;49.240;8.548;2022-07-29T02:58:01;24.30;54.50
19567;DHT22;9930;49.240;8.548;2022-07-29T03:00:33;24.40;54.50
19567;DHT22;9930;49.240;8.548;2022-07-29T03:03:03;24.40;54.30
19567;DHT22;9930;49.240;8.548;2022-07-29T03:05:36;24.30;54.40
19567;DHT22;9930;49.240;8.548;2022-07-29T03:08:04;24.30;54.60
19567;DHT22;9930;49.240;8.548;2022-07-29T03:10:34;24.30;54.80
19567;DHT22;9930;49.240;8.548;2022-07-29T03:13:05;24.30;55.00
19567;DHT22;9930;49.240;8.548;2022-07-29T03:15:34;24.20;55.00
19567;DHT22;9930;49.240;8.548;2022-07-29T03:18:03;24.20;55.00
19567;DHT22;9930;49.240;8.548;2022-07-29T03:20:34;24.20;55.20
19567;DHT22;9930;49.240;8.548;2022-07-29T03:23:02;24.20;55.00
19567;DHT22;9930;49.240;8.548;2022-07-29T03:25:31;24.20;55.10
19567;DHT22;9930;49.240;8.548;2022-07-29T03:27:59;24.20;55.30
19567;DHT22;9930;49.240;8.548;2022-07-29T03:30:25;24.20;55.30
19567;DHT22;9930;49.240;8.548;2022-07-29T03:32:51;24.20;55.40
19567;DHT22;9930;49.240;8.548;2022-07-29T03:35:20;24.20;55.40
19567;DHT22;9930;49.240;8.548;2022-07-29T03:37:46;24.20;55.50
19567;DHT22;9930;49.240;8.548;2022-07-29T03:40:26;24.20;55.60
19567;DHT22;9930;49.240;8.548;2022-07-29T03:42:56;24.10;55.90
19567;DHT22;9930;49.240;8.548;2022-07-29T03:45:27;24.10;55.80
19567;DHT22;9930;49.240;8.548;2022-07-29T03:48:06;24.10;56.00
19567;DHT22;9930;49.240;8.548;2022-07-29T03:50:35;24.10;56.20
19567;DHT22;9930;49.240;8.548;2022-07-29T03:53:04;24.10;56.10
19567;DHT22;9930;49.240;8.548;2022-07-29T03:55:39;24.00;56.40
19567;DHT22;9930;49.240;8.548;2022-07-29T03:58:11;24.00;56.60
19567;DHT22;9930;49.240;8.548;2022-07-29T04:00:44;24.00;56.50
19567;DHT22;9930;49.240;8.548;2022-07-29T04:03:10;23.90;56.70
19567;DHT22;9930;49.240;8.548;2022-07-29T04:05:36;23.90;56.60
19567;DHT22;9930;49.240;8.548;2022-07-29T04:08:05;23.90;56.70
19567;DHT22;9930;49.240;8.548;2022-07-29T04:10:35;23.90;56.70
19567;DHT22;9930;49.240;8.548;2022-07-29T04:13:07;23.90;56.90
19567;DHT22;9930;49.240;8.548;2022-07-29T04:15:35;23.80;56.80
19567;DHT22;9930;49.240;8.548;2022-07-29T04:18:05;23.80;56.80
19567;DHT22;9930;49.240;8.548;2022-07-29T04:20:35;23.80;56.90
19567;DHT22;9930;49.240;8.548;2022-07-29T04:23:05;23.80;57.00
19567;DHT22;9930;49.240;8.548;2022-07-29T04:25:38;23.70;57.10
19567;DHT22;9930;49.240;8.548;2022-07-29T04:28:06;23.70;57.20
19567;DHT22;9930;49.240;8.548;2022-07-29T04:30:36;23.70;57.30
19567;DHT22;9930;49.240;8.548;2022-07-29T04:33:06;23.70;57.50
19567;DHT22;9930;49.240;8.548;2022-07-29T04:35:37;23.70;57.40
19567;DHT22;9930;49.240;8.548;2022-07-29T04:38:06;23.70;57.60
19567;DHT22;9930;49.240;8.548;2022-07-29T04:40:35;23.70;57.60
19567;DHT22;9930;49.240;8.548;2022-07-29T04:43:05;23.70;57.90
19567;DHT22;9930;49.240;8.548;2022-07-29T04:45:33;23.70;57.90
19567;DHT22;9930;49.240;8.548;2022-07-29T04:48:00;23.80;57.90
19567;DHT22;9930;49.240;8.548;2022-07-29T04:50:37;23.80;57.80
19567;DHT22;9930;49.240;8.548;2022-07-29T04:53:05;23.90;57.90
19567;DHT22;9930;49.240;8.548;2022-07-29T04:55:36;23.90;57.70
19567;DHT22;9930;49.240;8.548;2022-07-29T04:58:06;23.90;57.80
19567;DHT22;9930;49.240;8.548;2022-07-29T05:00:35;23.90;57.60
19567;DHT22;9930;49.240;8.548;2022-07-29T05:03:05;23.90;57.90
19567;DHT22;9930;49.240;8.548;2022-07-29T05:05:38;23.90;57.90
19567;DHT22;9930;49.240;8.548;2022-07-29T05:08:06;23.90;58.30
19567;DHT22;9930;49.240;8.548;2022-07-29T05:10:35;24.00;58.20
19567;DHT22;9930;49.240;8.548;2022-07-29T05:13:06;24.00;58.50
19567;DHT22;9930;49.240;8.548;2022-07-29T05:15:36;24.10;58.40
19567;DHT22;9930;49.240;8.548;2022-07-29T05:18:05;24.10;58.30
19567;DHT22;9930;49.240;8.548;2022-07-29T05:20:35;24.20;58.40
19567;DHT22;9930;49.240;8.548;2022-07-29T05:23:10;24.20;58.40
19567;DHT22;9930;49.240;8.548;2022-07-29T05:25:40;24.20;58.50
19567;DHT22;9930;49.240;8.548;2022-07-29T05:28:06;24.30;58.20
19567;DHT22;9930;49.240;8.548;2022-07-29T05:30:34;24.40;58.30
19567;DHT22;9930;49.240;8.548;2022-07-29T05:33:05;24.40;58.30
19567;DHT22;9930;49.240;8.548;2022-07-29T05:35:39;24.40;58.30
19567;DHT22;9930;49.240;8.548;2022-07-29T05:38:05;24.50;58.50
19567;DHT22;9930;49.240;8.548;2022-07-29T05:40:34;24.60;58.60
19567;DHT22;9930;49.240;8.548;2022-07-29T05:43:06;24.70;59.10
19567;DHT22;9930;49.240;8.548;2022-07-29T05:45:35;24.80;59.50
19567;DHT22;9930;49.240;8.548;2022-07-29T05:48:04;25.20;59.70
19567;DHT22;9930;49.240;8.548;2022-07-29T05:50:35;25.40;59.50
19567;DHT22;9930;49.240;8.548;2022-07-29T05:53:04;25.70;59.30
19567;DHT22;9930;49.240;8.548;2022-07-29T05:55:31;25.90;59.00
19567;DHT22;9930;49.240;8.548;2022-07-29T05:58:05;26.10;58.60
19567;DHT22;9930;49.240;8.548;2022-07-29T06:00:35;26.30;58.20
19567;DHT22;9930;49.240;8.548;2022-07-29T06:03:05;26.40;58.00
19567;DHT22;9930;49.240;8.548;2022-07-29T06:05:35;26.50;57.60
19567;DHT22;9930;49.240;8.548;2022-07-29T06:08:05;26.60;57.90
19567;DHT22;9930;49.240;8.548;2022-07-29T06:10:36;26.70;56.90
19567;DHT22;9930;49.240;8.548;2022-07-29T06:13:09;26.70;56.90
19567;DHT22;9930;49.240;8.548;2022-07-29T06:15:35;26.70;56.80
19567;DHT22;9930;49.240;8.548;2022-07-29T06:18:05;26.80;57.00
19567;DHT22;9930;49.240;8.548;2022-07-29T06:20:38;26.80;57.30
19567;DHT22;9930;49.240;8.548;2022-07-29T06:23:05;26.90;57.60
19567;DHT22;9930;49.240;8.548;2022-07-29T06:25:40;27.10;57.60
19567;DHT22;9930;49.240;8.548;2022-07-29T06:28:06;27.20;57.60
19567;DHT22;9930;49.240;8.548;2022-07-29T06:30:38;27.30;56.70
19567;DHT22;9930;49.240;8.548;2022-07-29T06:33:05;27.40;56.30
19567;DHT22;9930;49.240;8.548;2022-07-29T06:35:34;27.40;56.30
19567;DHT22;9930;49.240;8.548;2022-07-29T06:38:04;27.40;56.30
19567;DHT22;9930;49.240;8.548;2022-07-29T06:40:35;27.50;56.10
19567;DHT22;9930;49.240;8.548;2022-07-29T06:43:19;27.50;55.90
19567;DHT22;9930;49.240;8.548;2022-07-29T06:45:45;27.50;55.80
19567;DHT22;9930;49.240;8.548;2022-07-29T06:48:13;27.50;55.90
19567;DHT22;9930;49.240;8.548;2022-07-29T06:50:41;27.50;55.90
19567;DHT22;9930;49.240;8.548;2022-07-29T06:53:09;27.50;55.80
19567;DHT22;9930;49.240;8.548;2022-07-29T06:55:37;27.50;55.80
19567;DHT22;9930;49.240;8.548;2022-07-29T06:58:07;27.60;55.70
19567;DHT22;9930;49.240;8.548;2022-07-29T07:00:35;27.60;55.70
19567;DHT22;9930;49.240;8.548;2022-07-29T07:03:04;27.60;55.60
19567;DHT22;9930;49.240;8.548;2022-07-29T07:05:35;27.60;55.60
19567;DHT22;9930;49.240;8.548;2022-07-29T07:08:06;27.60;55.50
19567;DHT22;9930;49.240;8.548;2022-07-29T07:10:34;27.60;55.60
19567;DHT22;9930;49.240;8.548;2022-07-29T07:13:02;27.70;55.60
19567;DHT22;9930;49.240;8.548;2022-07-29T07:15:37;27.70;55.40
19567;DHT22;9930;49.240;8.548;2022-07-29T07:18:05;27.70;55.10
19567;DHT22;9930;49.240;8.548;2022-07-29T07:20:35;27.70;55.40
19567;DHT22;9930;49.240;8.548;2022-07-29T07:23:05;27.70;55.60
19567;DHT22;9930;49.240;8.548;2022-07-29T07:25:34;27.70;56.10
19567;DHT22;9930;49.240;8.548;2022-07-29T07:28:04;27.90;56.30
19567;DHT22;9930;49.240;8.548;2022-07-29T07:30:34;28.00;56.00
19567;DHT22;9930;49.240;8.548;2022-07-29T07:33:08;28.20;56.00
19567;DHT22;9930;49.240;8.548;2022-07-29T07:35:35;28.30;55.90
19567;DHT22;9930;49.240;8.548;2022-07-29T07:38:05;28.50;56.00
19567;DHT22;9930;49.240;8.548;2022-07-29T07:40:35;28.70;55.80
19567;DHT22;9930;49.240;8.548;2022-07-29T07:43:05;28.80;55.40
19567;DHT22;9930;49.240;8.548;2022-07-29T07:45:35;29.00;55.10
19567;DHT22;9930;49.240;8.548;2022-07-29T07:48:04;29.20;55.00
19567;DHT22;9930;49.240;8.548;2022-07-29T07:50:35;29.30;54.30
19567;DHT22;9930;49.240;8.548;2022-07-29T07:53:04;29.40;54.00
19567;DHT22;9930;49.240;8.548;2022-07-29T07:55:39;29.40;53.40
19567;DHT22;9930;49.240;8.548;2022-07-29T07:58:08;29.40;53.40
19567;DHT22;9930;49.240;8.548;2022-07-29T08:00:39;29.40;53.50
19567;DHT22;9930;49.240;8.548;2022-07-29T08:03:11;29.40;53.70
19567;DHT22;9930;49.240;8.548;2022-07-29T08:05:39;29.60;54.10
19567;DHT22;9930;49.240;8.548;2022-07-29T08:08:06;29.70;54.20
19567;DHT22;9930;49.240;8.548;2022-07-29T08:10:36;29.90;54.20
19567;DHT22;9930;49.240;8.548;2022-07-29T08:13:19;30.00;53.80
19567;DHT22;9930;49.240;8.548;2022-07-29T08:15:48;30.10;53.50
19567;DHT22;9930;49.240;8.548;2022-07-29T08:18:26;30.30;53.20
19567;DHT22;9930;49.240;8.548;2022-07-29T08:20:56;30.30;52.60
19567;DHT22;9930;49.240;8.548;2022-07-29T08:23:23;30.40;52.30
19567;DHT22;9930;49.240;8.548;2022-07-29T08:25:52;30.40;52.20
19567;DHT22;9930;49.240;8.548;2022-07-29T08:28:20;30.40;51.90
19567;DHT22;9930;49.240;8.548;2022-07-29T08:30:46;30.30;51.70
19567;DHT22;9930;49.240;8.548;2022-07-29T08:33:12;30.20;51.40
19567;DHT22;9930;49.240;8.548;2022-07-29T08:35:38;30.10;51.40
19567;DHT22;9930;49.240;8.548;2022-07-29T08:38:07;30.00;51.50
19567;DHT22;9930;49.240;8.548;2022-07-29T08:40:35;30.00;51.90
19567;DHT22;9930;49.240;8.548;2022-07-29T08:43:09;29.90;51.60
19567;DHT22;9930;49.240;8.548;2022-07-29T08:45:46;29.80;51.40
19567;DHT22;9930;49.240;8.548;2022-07-29T08:48:14;29.70;51.60
19567;DHT22;9930;49.240;8.548;2022-07-29T08:50:42;29.70;51.90
19567;DHT22;9930;49.240;8.548;2022-07-29T08:53:11;29.70;52.10
19567;DHT22;9930;49.240;8.548;2022-07-29T08:55:40;29.70;52.10
19567;DHT22;9930;49.240;8.548;2022-07-29T08:58:14;29.70;52.20
19567;DHT22;9930;49.240;8.548;2022-07-29T09:00:45;29.80;52.00
19567;DHT22;9930;49.240;8.548;2022-07-29T09:03:18;29.80;51.90
19567;DHT22;9930;49.240;8.548;2022-07-29T09:05:46;29.80;51.60
19567;DHT22;9930;49.240;8.548;2022-07-29T09:08:15;29.90;52.10
19567;DHT22;9930;49.240;8.548;2022-07-29T09:10:46;30.00;51.20
19567;DHT22;9930;49.240;8.548;2022-07-29T09:13:12;30.00;51.20
19567;DHT22;9930;49.240;8.548;2022-07-29T09:15:38;30.10;51.10
19567;DHT22;9930;49.240;8.548;2022-07-29T09:18:05;30.10;50.70
19567;DHT22;9930;49.240;8.548;2022-07-29T09:20:33;30.10;50.40
19567;DHT22;9930;49.240;8.548;2022-07-29T09:23:19;30.10;50.40
19567;DHT22;9930;49.240;8.548;2022-07-29T09:25:44;30.10;50.40
19567;DHT22;9930;49.240;8.548;2022-07-29T09:28:16;30.20;50.60
19567;DHT22;9930;49.240;8.548;2022-07-29T09:30:57;30.30;50.60
19567;DHT22;9930;49.240;8.548;2022-07-29T09:33:30;30.30;50.40
19567;DHT22;9930;49.240;8.548;2022-07-29T09:36:08;30.40;50.90
19567;DHT22;9930;49.240;8.548;2022-07-29T09:38:35;30.50;50.30
19567;DHT22;9930;49.240;8.548;2022-07-29T09:41:06;30.70;50.60
19567;DHT22;9930;49.240;8.548;2022-07-29T09:43:35;30.80;50.10
19567;DHT22;9930;49.240;8.548;2022-07-29T09:46:11;30.90;49.90
19567;DHT22;9930;49.240;8.548;2022-07-29T09:48:41;31.00;49.00
19567;DHT22;9930;49.240;8.548;2022-07-29T09:51:19;31.10;50.10
19567;DHT22;9930;49.240;8.548;2022-07-29T09:53:46;31.20;48.80
19567;DHT22;9930;49.240;8.548;2022-07-29T09:56:14;31.30;48.90
19567;DHT22;9930;49.240;8.548;2022-07-29T09:58:42;31.40;48.70
19567;DHT22;9930;49.240;8.548;2022-07-29T10:01:07;31.40;48.40
19567;DHT22;9930;49.240;8.548;2022-07-29T10:03:51;31.50;48.90
19567;DHT22;9930;49.240;8.548;2022-07-29T10:06:18;31.50;47.80
19567;DHT22;9930;49.240;8.548;2022-07-29T10:08:46;31.60;48.00
19567;DHT22;9930;49.240;8.548;2022-07-29T10:11:16;31.70;47.70
19567;DHT22;9930;49.240;8.548;2022-07-29T10:13:44;31.80;47.70
19567;DHT22;9930;49.240;8.548;2022-07-29T10:16:13;31.90;47.50
19567;DHT22;9930;49.240;8.548;2022-07-29T10:18:43;31.90;47.00
19567;DHT22;9930;49.240;8.548;2022-07-29T10:21:09;31.90;46.70
19567;DHT22;9930;49.240;8.548;2022-07-29T10:23:38;32.00;46.60
19567;DHT22;9930;49.240;8.548;2022-07-29T10:26:07;32.00;46.20
19567;DHT22;9930;49.240;8.548;2022-07-29T10:28:35;32.10;46.10
19567;DHT22;9930;49.240;8.548;2022-07-29T10:31:16;32.10;46.00
19567;DHT22;9930;49.240;8.548;2022-07-29T10:40:57;32.10;45.50
19567;DHT22;9930;49.240;8.548;2022-07-29T10:44:14;32.10;45.40
19567;DHT22;9930;49.240;8.548;2022-07-29T10:46:43;32.10;45.00
19567;DHT22;9930;49.240;8.548;2022-07-29T10:51:54;32.30;45.10
19567;DHT22;9930;49.240;8.548;2022-07-29T10:57:24;32.30;44.70
19567;DHT22;9930;49.240;8.548;2022-07-29T11:05:18;32.50;44.40
19567;DHT22;9930;49.240;8.548;2022-07-29T11:10:39;32.70;44.10
19567;DHT22;9930;49.240;8.548;2022-07-29T11:13:05;32.80;44.20
19567;DHT22;9930;49.240;8.548;2022-07-29T11:15:56;32.90;43.90
19567;DHT22;9930;49.240;8.548;2022-07-29T11:18:23;32.90;43.30
19567;DHT22;9930;49.240;8.548;2022-07-29T11:20:50;32.90;43.20
19567;DHT22;9930;49.240;8.548;2022-07-29T11:23:29;32.90;42.80
19567;DHT22;9930;49.240;8.548;2022-07-29T11:26:18;32.80;42.10
19567;DHT22;9930;49.240;8.548;2022-07-29T11:29:19;32.80;42.90
19567;DHT22;9930;49.240;8.548;2022-07-29T11:31:50;32.70;42.40
19567;DHT22;9930;49.240;8.548;2022-07-29T11:34:25;32.70;42.90
19567;DHT22;9930;49.240;8.548;2022-07-29T11:45:01;32.70;42.20
19567;DHT22;9930;49.240;8.548;2022-07-29T11:47:34;32.70;42.60
19567;DHT22;9930;49.240;8.548;2022-07-29T11:50:09;32.80;42.20
19567;DHT22;9930;49.240;8.548;2022-07-29T11:52:45;32.80;42.00
19567;DHT22;9930;49.240;8.548;2022-07-29T11:55:15;32.90;42.10
19567;DHT22;9930;49.240;8.548;2022-07-29T11:57:55;32.90;41.70
19567;DHT22;9930;49.240;8.548;2022-07-29T12:00:38;32.80;41.60
19567;DHT22;9930;49.240;8.548;2022-07-29T12:03:13;32.80;41.40
19567;DHT22;9930;49.240;8.548;2022-07-29T12:05:50;32.80;41.10
19567;DHT22;9930;49.240;8.548;2022-07-29T12:08:21;32.90;41.40
19567;DHT22;9930;49.240;8.548;2022-07-29T12:10:51;32.90;41.10
19567;DHT22;9930;49.240;8.548;2022-07-29T12:13:19;32.90;40.60
19567;DHT22;9930;49.240;8.548;2022-07-29T12:15:59;32.90;40.70
19567;DHT22;9930;49.240;8.548;2022-07-29T12:23:35;32.90;41.10
19567;DHT22;9930;49.240;8.548;2022-07-29T12:26:05;33.00;41.20
19567;DHT22;9930;49.240;8.548;2022-07-29T12:28:38;33.10;40.70
19567;DHT22;9930;49.240;8.548;2022-07-29T12:31:05;33.30;40.00
19567;DHT22;9930;49.240;8.548;2022-07-29T12:33:35;33.30;39.90
19567;DHT22;9930;49.240;8.548;2022-07-29T12:36:04;33.20;39.50
19567;DHT22;9930;49.240;8.548;2022-07-29T12:38:31;33.20;39.70
19567;DHT22;9930;49.240;8.548;2022-07-29T12:41:00;33.20;39.80
19567;DHT22;9930;49.240;8.548;2022-07-29T12:43:29;33.10;40.10
19567;DHT22;9930;49.240;8.548;2022-07-29T12:45:56;33.10;40.00
19567;DHT22;9930;49.240;8.548;2022-07-29T12:48:36;33.10;40.00
19567;DHT22;9930;49.240;8.548;2022-07-29T12:51:07;33.10;39.80
19567;DHT22;9930;49.240;8.548;2022-07-29T12:53:37;33.10;39.80
19567;DHT22;9930;49.240;8.548;2022-07-29T12:56:05;33.00;40.00
19567;DHT22;9930;49.240;8.548;2022-07-29T12:58:36;33.00;40.10
19567;DHT22;9930;49.240;8.548;2022-07-29T13:01:12;33.00;40.10
19567;DHT22;9930;49.240;8.548;2022-07-29T13:06:40;33.00;39.80
19567;DHT22;9930;49.240;8.548;2022-07-29T13:09:16;33.00;39.70
19567;DHT22;9930;49.240;8.548;2022-07-29T13:11:44;33.10;39.90
19567;DHT22;9930;49.240;8.548;2022-07-29T13:14:33;33.10;40.00
19567;DHT22;9930;49.240;8.548;2022-07-29T13:17:21;33.10;39.80
19567;DHT22;9930;49.240;8.548;2022-07-29T13:20:08;33.10;39.50
19567;DHT22;9930;49.240;8.548;2022-07-29T13:22:38;33.10;39.30
19567;DHT22;9930;49.240;8.548;2022-07-29T13:25:08;33.10;39.40
19567;DHT22;9930;49.240;8.548;2022-07-29T13:27:37;33.10;39.50
19567;DHT22;9930;49.240;8.548;2022-07-29T13:30:08;33.10;39.40
19567;DHT22;9930;49.240;8.548;2022-07-29T13:32:37;33.10;39.60
19567;DHT22;9930;49.240;8.548;2022-07-29T13:35:07;33.00;39.60
19567;DHT22;9930;49.240;8.548;2022-07-29T13:37:35;33.00;39.60
19567;DHT22;9930;49.240;8.548;2022-07-29T13:40:06;33.00;39.60
19567;DHT22;9930;49.240;8.548;2022-07-29T13:42:35;33.10;39.40
19567;DHT22;9930;49.240;8.548;2022-07-29T13:45:08;33.10;39.50
19567;DHT22;9930;49.240;8.548;2022-07-29T13:47:36;33.10;39.40
19567;DHT22;9930;49.240;8.548;2022-07-29T13:50:06;33.10;39.50
19567;DHT22;9930;49.240;8.548;2022-07-29T13:52:35;33.10;39.40
19567;DHT22;9930;49.240;8.548;2022-07-29T13:55:05;33.20;39.60
19567;DHT22;9930;49.240;8.548;2022-07-29T13:57:34;33.30;38.90
19567;DHT22;9930;49.240;8.548;2022-07-29T14:00:08;33.30;39.00
19567;DHT22;9930;49.240;8.548;2022-07-29T14:02:35;33.40;38.60
19567;DHT22;9930;49.240;8.548;2022-07-29T14:05:04;33.40;38.40
19567;DHT22;9930;49.240;8.548;2022-07-29T14:07:35;33.40;38.20
19567;DHT22;9930;49.240;8.548;2022-07-29T14:10:08;33.30;38.00
19567;DHT22;9930;49.240;8.548;2022-07-29T14:12:35;33.40;38.40
19567;DHT22;9930;49.240;8.548;2022-07-29T14:15:03;33.40;38.10
19567;DHT22;9930;49.240;8.548;2022-07-29T14:17:32;33.30;37.80
19567;DHT22;9930;49.240;8.548;2022-07-29T14:20:02;33.40;37.80
19567;DHT22;9930;49.240;8.548;2022-07-29T14:22:38;33.40;37.70
19567;DHT22;9930;49.240;8.548;2022-07-29T14:25:05;33.30;37.50
19567;DHT22;9930;49.240;8.548;2022-07-29T14:27:35;33.30;37.60
19567;DHT22;9930;49.240;8.548;2022-07-29T14:30:01;33.30;37.40
19567;DHT22;9930;49.240;8.548;2022-07-29T14:32:30;33.30;37.40
19567;DHT22;9930;49.240;8.548;2022-07-29T14:35:00;33.20;37.10
19567;DHT22;9930;49.240;8.548;2022-07-29T14:37:30;33.20;37.10
19567;DHT22;9930;49.240;8.548;2022-07-29T14:39:55;33.20;37.00
19567;DHT22;9930;49.240;8.548;2022-07-29T14:42:27;33.10;37.10
19567;DHT22;9930;49.240;8.548;2022-07-29T14:44:52;33.10;37.10
19567;DHT22;9930;49.240;8.548;2022-07-29T14:47:20;33.00;37.00
19567;DHT22;9930;49.240;8.548;2022-07-29T14:49:47;33.00;37.00
19567;DHT22;9930;49.240;8.548;2022-07-29T14:52:12;33.00;36.90
19567;DHT22;9930;49.240;8.548;2022-07-29T14:54:40;33.00;37.00
19567;DHT22;9930;49.240;8.548;2022-07-29T14:57:06;33.00;36.90
19567;DHT22;9930;49.240;8.548;2022-07-29T14:59:35;33.00;36.80
19567;DHT22;9930;49.240;8.548;2022-07-29T15:02:00;33.00;36.70
19567;DHT22;9930;49.240;8.548;2022-07-29T15:04:26;33.10;36.50
19567;DHT22;9930;49.240;8.548;2022-07-29T15:06:54;33.10;36.50
19567;DHT22;9930;49.240;8.548;2022-07-29T15:09:23;33.10;36.50
19567;DHT22;9930;49.240;8.548;2022-07-29T15:11:51;33.10;37.00
19567;DHT22;9930;49.240;8.548;2022-07-29T15:14:16;33.10;36.50
19567;DHT22;9930;49.240;8.548;2022-07-29T15:16:42;33.10;36.30
19567;DHT22;9930;49.240;8.548;2022-07-29T15:19:10;33.20;36.30
19567;DHT22;9930;49.240;8.548;2022-07-29T15:21:36;33.20;36.20
19567;DHT22;9930;49.240;8.548;2022-07-29T15:24:05;33.20;36.10
19567;DHT22;9930;49.240;8.548;2022-07-29T15:26:35;33.20;36.20
19567;DHT22;9930;49.240;8.548;2022-07-29T15:29:01;33.30;36.20
19567;DHT22;9930;49.240;8.548;2022-07-29T15:31:30;33.20;35.80
19567;DHT22;9930;49.240;8.548;2022-07-29T15:33:59;33.30;35.40
19567;DHT22;9930;49.240;8.548;2022-07-29T15:36:27;33.20;35.20
19567;DHT22;9930;49.240;8.548;2022-07-29T15:38:56;33.20;35.00
19567;DHT22;9930;49.240;8.548;2022-07-29T15:41:23;33.20;35.30
19567;DHT22;9930;49.240;8.548;2022-07-29T15:43:49;33.20;35.20
19567;DHT22;9930;49.240;8.548;2022-07-29T15:46:17;33.10;35.10
19567;DHT22;9930;49.240;8.548;2022-07-29T15:49:09;33.10;35.30
19567;DHT22;9930;49.240;8.548;2022-07-29T15:51:37;33.00;35.00
19567;DHT22;9930;49.240;8.548;2022-07-29T15:54:05;33.10;35.20
19567;DHT22;9930;49.240;8.548;2022-07-29T15:56:35;33.10;35.00
19567;DHT22;9930;49.240;8.548;2022-07-29T15:59:00;33.10;35.00
19567;DHT22;9930;49.240;8.548;2022-07-29T16:01:34;33.10;35.00
19567;DHT22;9930;49.240;8.548;2022-07-29T16:04:00;33.00;34.80
19567;DHT22;9930;49.240;8.548;2022-07-29T16:06:30;33.00;34.90
19567;DHT22;9930;49.240;8.548;2022-07-29T16:08:57;33.00;34.80
19567;DHT22;9930;49.240;8.548;2022-07-29T16:11:24;33.00;34.70
19567;DHT22;9930;49.240;8.548;2022-07-29T16:13:50;32.90;34.60
19567;DHT22;9930;49.240;8.548;2022-07-29T16:16:16;32.90;34.70
19567;DHT22;9930;49.240;8.548;2022-07-29T16:18:43;32.80;34.50
19567;DHT22;9930;49.240;8.548;2022-07-29T16:21:11;32.80;34.50
19567;DHT22;9930;49.240;8.548;2022-07-29T16:23:40;32.70;34.40
19567;DHT22;9930;49.240;8.548;2022-07-29T16:26:08;32.60;34.50
19567;DHT22;9930;49.240;8.548;2022-07-29T16:28:35;32.60;34.70
19567;DHT22;9930;49.240;8.548;2022-07-29T16:31:08;32.60;34.70
19567;DHT22;9930;49.240;8.548;2022-07-29T16:33:35;32.50;34.60
19567;DHT22;9930;49.240;8.548;2022-07-29T16:36:08;32.50;34.70
19567;DHT22;9930;49.240;8.548;2022-07-29T16:38:36;32.40;34.80
19567;DHT22;9930;49.240;8.548;2022-07-29T16:41:08;32.40;34.70
19567;DHT22;9930;49.240;8.548;2022-07-29T16:43:35;32.40;34.80
19567;DHT22;9930;49.240;8.548;2022-07-29T16:46:09;32.40;34.70
19567;DHT22;9930;49.240;8.548;2022-07-29T16:48:38;32.30;34.40
19567;DHT22;9930;49.240;8.548;2022-07-29T16:51:06;32.30;34.50
19567;DHT22;9930;49.240;8.548;2022-07-29T16:53:35;32.30;34.60
19567;DHT22;9930;49.240;8.548;2022-07-29T16:56:03;32.20;34.70
19567;DHT22;9930;49.240;8.548;2022-07-29T16:58:35;32.20;34.70
19567;DHT22;9930;49.240;8.548;2022-07-29T17:01:03;32.20;34.50
19567;DHT22;9930;49.240;8.548;2022-07-29T17:03:32;32.20;34.50
19567;DHT22;9930;49.240;8.548;2022-07-29T17:06:20;32.20;34.50